createdAt,value
2017-11-27T00:02:26.237Z,4.00
2017-11-27T00:04:53.437Z,4.70
2017-11-27T00:07:19.915Z,3.40
2017-11-27T00:09:46.361Z,4.80
2017-11-27T00:12:12.796Z,4.30
2017-11-27T00:14:39.236Z,5.30
2017-11-27T00:17:05.720Z,4.40
2017-11-27T00:19:32.900Z,4.03
2017-11-27T00:21:59.360Z,3.90
2017-11-27T00:24:25.820Z,4.27
2017-11-27T00:26:52.262Z,5.23
2017-11-27T00:29:18.698Z,4.57
2017-11-27T00:31:45.918Z,5.33
2017-11-27T00:34:13.136Z,4.80
2017-11-27T00:36:39.564Z,3.10
2017-11-27T00:39:06.007Z,4.63
2017-11-27T00:41:32.528Z,4.67
2017-11-27T00:43:58.969Z,5.33
2017-11-27T00:46:25.452Z,3.43
2017-11-27T00:48:51.868Z,4.07
2017-11-27T00:51:18.359Z,4.10
2017-11-27T00:53:44.804Z,5.03
2017-11-27T00:56:24.357Z,3.10
2017-11-27T00:58:50.800Z,4.00
2017-11-27T01:01:18.832Z,3.43
2017-11-27T01:03:45.301Z,3.80
2017-11-27T01:06:11.731Z,2.50
2017-11-27T01:08:38.223Z,3.27
2017-11-27T01:11:05.440Z,3.83
2017-11-27T01:13:31.881Z,4.10
2017-11-27T01:15:58.275Z,3.97
2017-11-27T01:18:25.487Z,3.63
2017-11-27T01:20:51.937Z,3.80
2017-11-27T01:23:18.379Z,4.50
2017-11-27T01:25:44.827Z,2.73
2017-11-27T01:28:11.219Z,3.27
2017-11-27T01:30:38.403Z,3.30
2017-11-27T01:33:04.876Z,3.80
2017-11-27T01:35:31.347Z,2.90
2017-11-27T01:37:58.536Z,3.63
2017-11-27T01:40:25.721Z,2.90
2017-11-27T01:42:52.176Z,3.73
2017-11-27T01:45:18.700Z,4.33
2017-11-27T01:47:45.205Z,3.50
2017-11-27T01:50:11.644Z,3.50
2017-11-27T01:52:38.125Z,3.47
2017-11-27T01:55:04.528Z,3.37
2017-11-27T01:57:31.751Z,2.13
2017-11-27T01:59:58.191Z,3.70
2017-11-27T02:02:24.629Z,3.50
2017-11-27T02:04:51.797Z,3.67
2017-11-27T02:07:18.220Z,2.70
2017-11-27T02:09:45.492Z,3.50
2017-11-27T02:12:11.901Z,2.80
2017-11-27T02:14:39.077Z,3.80
2017-11-27T02:17:06.229Z,2.47
2017-11-27T02:19:32.721Z,2.80
2017-11-27T02:21:59.150Z,4.10
2017-11-27T02:24:25.663Z,3.30
2017-11-27T02:26:52.816Z,2.50
2017-11-27T02:29:19.969Z,2.80
2017-11-27T02:31:47.145Z,3.13
2017-11-27T02:34:14.279Z,3.40
2017-11-27T02:36:40.732Z,2.70
2017-11-27T02:39:07.152Z,3.10
2017-11-27T02:41:34.589Z,3.40
2017-11-27T02:44:01.021Z,3.20
2017-11-27T02:46:27.469Z,3.60
2017-11-27T02:48:53.888Z,2.63
2017-11-27T02:51:20.387Z,2.90
2017-11-27T02:53:46.830Z,2.60
2017-11-27T02:56:13.487Z,4.30
2017-11-27T02:58:39.940Z,2.73
2017-11-27T03:01:06.353Z,2.63
2017-11-27T03:03:33.772Z,2.90
2017-11-27T03:06:00.249Z,2.87
2017-11-27T03:08:26.758Z,3.03
2017-11-27T03:10:53.927Z,2.60
2017-11-27T03:13:21.071Z,2.83
2017-11-27T03:15:48.264Z,2.40
2017-11-27T03:18:14.666Z,2.77
2017-11-27T03:20:41.834Z,1.47
2017-11-27T03:23:09.002Z,2.97
2017-11-27T03:25:35.515Z,2.37
2017-11-27T03:28:01.912Z,2.57
2017-11-27T03:30:28.345Z,2.40
2017-11-27T03:32:54.772Z,1.93
2017-11-27T03:35:21.979Z,2.37
2017-11-27T03:37:48.411Z,2.30
2017-11-27T03:40:14.869Z,2.30
2017-11-27T03:42:41.297Z,2.90
2017-11-27T03:45:07.739Z,2.67
2017-11-27T03:47:34.170Z,2.20
2017-11-27T03:50:00.565Z,2.40
2017-11-27T03:52:27.733Z,3.67
2017-11-27T03:54:54.258Z,2.33
2017-11-27T03:57:20.674Z,2.77
2017-11-27T03:59:47.119Z,2.83
2017-11-27T04:02:13.542Z,3.23
2017-11-27T04:04:39.999Z,2.73
2017-11-27T04:07:06.436Z,3.30
2017-11-27T04:09:32.848Z,2.70
2017-11-27T04:11:59.667Z,3.50
2017-11-27T04:14:26.156Z,2.33
2017-11-27T04:16:52.929Z,2.10
2017-11-27T04:19:19.413Z,3.00
2017-11-27T04:21:45.829Z,2.37
2017-11-27T04:24:12.270Z,3.03
2017-11-27T04:26:38.748Z,2.27
2017-11-27T04:29:05.232Z,2.47
2017-11-27T04:31:31.688Z,2.80
2017-11-27T04:33:58.136Z,2.33
2017-11-27T04:36:24.567Z,4.10
2017-11-27T04:38:51.026Z,2.50
2017-11-27T04:41:17.520Z,2.37
2017-11-27T04:43:45.434Z,1.97
2017-11-27T04:46:11.915Z,3.00
2017-11-27T04:48:38.534Z,2.50
2017-11-27T04:51:05.037Z,4.40
2017-11-27T04:53:31.485Z,2.47
2017-11-27T04:55:58.092Z,2.40
2017-11-27T04:58:24.631Z,2.60
2017-11-27T05:00:51.784Z,2.60
2017-11-27T05:03:19.085Z,2.60
2017-11-27T05:05:46.338Z,2.50
2017-11-27T05:08:12.820Z,3.63
2017-11-27T05:10:40.025Z,2.10
2017-11-27T05:13:06.505Z,3.13
2017-11-27T05:15:33.005Z,2.53
2017-11-27T05:17:59.487Z,3.20
2017-11-27T05:20:26.039Z,2.50
2017-11-27T05:22:52.546Z,2.57
2017-11-27T05:25:18.981Z,1.83
2017-11-27T05:27:45.436Z,1.90
2017-11-27T05:30:11.879Z,2.50
2017-11-27T05:32:38.313Z,2.73
2017-11-27T05:35:04.875Z,2.70
2017-11-27T05:37:31.336Z,3.83
2017-11-27T05:39:57.997Z,2.63
2017-11-27T05:42:24.480Z,2.47
2017-11-27T05:44:50.945Z,1.60
2017-11-27T05:47:17.665Z,2.67
2017-11-27T05:49:44.806Z,2.83
2017-11-27T05:52:11.313Z,2.30
2017-11-27T05:54:38.606Z,3.03
2017-11-27T05:57:05.797Z,1.87
2017-11-27T05:59:32.424Z,2.20
2017-11-27T06:01:58.877Z,3.53
2017-11-27T06:04:25.412Z,2.90
2017-11-27T06:06:51.929Z,3.13
2017-11-27T06:09:18.523Z,2.40
2017-11-27T06:11:45.137Z,3.23
2017-11-27T06:14:12.304Z,2.20
2017-11-27T06:16:38.806Z,2.47
2017-11-27T06:19:06.745Z,1.73
2017-11-27T06:21:33.203Z,1.97
2017-11-27T06:23:59.653Z,1.97
2017-11-27T06:26:26.103Z,1.90
2017-11-27T06:28:52.573Z,2.43
2017-11-27T06:31:19.009Z,2.73
2017-11-27T06:33:45.680Z,2.43
2017-11-27T06:36:12.831Z,2.50
2017-11-27T06:38:40.809Z,2.00
2017-11-27T06:41:08.212Z,2.47
2017-11-27T06:43:35.044Z,1.70
2017-11-27T06:46:03.992Z,2.03
2017-11-27T06:48:32.482Z,2.37
2017-11-27T06:51:00.297Z,2.13
2017-11-27T06:53:27.836Z,2.10
2017-11-27T06:55:55.407Z,2.97
2017-11-27T06:58:21.895Z,3.17
2017-11-27T07:00:49.253Z,2.10
2017-11-27T07:03:17.610Z,2.47
2017-11-27T07:05:45.990Z,2.60
2017-11-27T07:08:13.776Z,2.17
2017-11-27T07:10:43.609Z,2.80
2017-11-27T07:13:10.798Z,2.63
2017-11-27T07:15:39.517Z,2.40
2017-11-27T07:18:06.458Z,2.20
2017-11-27T07:20:34.146Z,2.30
2017-11-27T07:23:02.991Z,2.60
2017-11-27T07:25:31.267Z,2.10
2017-11-27T07:28:01.677Z,2.00
2017-11-27T07:30:30.812Z,2.60
2017-11-27T07:32:59.674Z,2.60
2017-11-27T07:35:29.732Z,2.47
2017-11-27T07:38:03.912Z,2.27
2017-11-27T07:40:36.099Z,2.33
2017-11-27T07:43:03.150Z,2.20
2017-11-27T07:45:34.504Z,2.40
2017-11-27T07:48:02.767Z,3.30
2017-11-27T07:50:33.793Z,2.97
2017-11-27T07:53:03.840Z,2.50
2017-11-27T07:55:32.357Z,2.83
2017-11-27T07:58:00.005Z,3.33
2017-11-27T08:00:29.076Z,2.67
2017-11-27T08:02:55.624Z,2.60
2017-11-27T08:05:23.157Z,3.30
2017-11-27T08:07:49.977Z,3.23
2017-11-27T08:10:18.315Z,3.70
2017-11-27T08:12:48.946Z,4.43
2017-11-27T08:15:15.595Z,4.07
2017-11-27T08:17:44.783Z,4.57
2017-11-27T08:20:15.883Z,3.90
2017-11-27T08:22:44.926Z,2.93
2017-11-27T08:25:14.118Z,3.53
2017-11-27T08:27:41.987Z,3.30
2017-11-27T08:30:10.678Z,4.80
2017-11-27T08:32:38.163Z,6.13
2017-11-27T08:35:05.598Z,5.00
2017-11-27T08:37:32.703Z,4.17
2017-11-27T08:39:59.740Z,4.97
2017-11-27T08:42:27.941Z,5.10
2017-11-27T08:44:55.090Z,4.80
2017-11-27T08:47:21.762Z,4.43
2017-11-27T08:49:48.365Z,4.10
2017-11-27T08:52:16.295Z,3.30
2017-11-27T08:54:43.642Z,3.40
2017-11-27T08:57:14.071Z,3.90
2017-11-27T08:59:41.846Z,3.77
2017-11-27T09:02:08.399Z,5.03
2017-11-27T09:04:35.853Z,3.67
2017-11-27T09:07:03.154Z,3.80
2017-11-27T09:09:31.041Z,4.60
2017-11-27T09:11:58.874Z,4.57
2017-11-27T09:14:25.565Z,3.97
2017-11-27T09:16:54.842Z,2.70
2017-11-27T09:19:22.267Z,3.90
2017-11-27T09:21:49.960Z,3.27
2017-11-27T09:24:18.399Z,3.60
2017-11-27T09:26:46.422Z,2.83
2017-11-27T09:29:13.911Z,3.70
2017-11-27T09:31:41.678Z,3.50
2017-11-27T09:34:08.492Z,3.30
2017-11-27T09:36:35.973Z,3.07
2017-11-27T09:39:05.651Z,3.47
2017-11-27T09:41:32.300Z,3.13
2017-11-27T09:44:00.741Z,2.57
2017-11-27T09:46:27.472Z,2.50
2017-11-27T09:48:57.510Z,3.37
2017-11-27T09:51:24.369Z,2.20
2017-11-27T09:53:54.106Z,1.97
2017-11-27T09:56:22.353Z,3.40
2017-11-27T09:58:51.509Z,1.60
2017-11-27T10:01:18.230Z,3.57
2017-11-27T10:03:46.553Z,3.17
2017-11-27T10:06:14.629Z,2.50
2017-11-27T10:08:44.014Z,3.37
2017-11-27T10:11:10.843Z,2.00
2017-11-27T10:13:38.842Z,2.20
2017-11-27T10:16:11.162Z,1.97
2017-11-27T10:18:37.827Z,2.87
2017-11-27T10:21:07.290Z,3.10
2017-11-27T10:23:35.392Z,2.53
2017-11-27T10:26:03.641Z,2.87
2017-11-27T10:28:31.546Z,2.47
2017-11-27T10:30:59.307Z,3.10
2017-11-27T10:33:28.247Z,2.60
2017-11-27T10:35:55.992Z,2.50
2017-11-27T10:38:23.326Z,1.13
2017-11-27T10:40:50.544Z,2.20
2017-11-27T10:43:17.908Z,2.27
2017-11-27T10:45:45.464Z,1.63
2017-11-27T10:48:14.097Z,1.90
2017-11-27T10:50:40.790Z,2.30
2017-11-27T10:53:10.720Z,1.90
2017-11-27T10:55:37.404Z,1.20
2017-11-27T10:58:04.864Z,2.00
2017-11-27T11:03:36.590Z,1.67
2017-11-27T11:06:07.867Z,2.00
2017-11-27T11:08:38.004Z,1.73
2017-11-27T11:11:11.838Z,1.20
2017-11-27T11:13:39.153Z,1.50
2017-11-27T11:16:08.508Z,1.60
2017-11-27T11:18:37.683Z,1.37
2017-11-27T11:21:07.098Z,1.50
2017-11-27T11:23:35.836Z,1.20
2017-11-27T11:26:03.653Z,1.37
2017-11-27T11:28:32.056Z,1.60
2017-11-27T11:31:00.065Z,1.90
2017-11-27T11:33:28.072Z,1.40
2017-11-27T11:35:55.225Z,1.20
2017-11-27T11:38:22.489Z,1.47
2017-11-27T11:40:49.744Z,1.47
2017-11-27T11:43:21.047Z,1.47
2017-11-27T11:45:56.783Z,1.43
2017-11-27T11:48:26.631Z,1.40
2017-11-27T11:51:01.594Z,1.10
2017-11-27T11:53:34.715Z,1.57
2017-11-27T11:56:06.639Z,2.00
2017-11-27T11:58:41.602Z,2.00
2017-11-27T12:01:12.920Z,1.37
2017-11-27T12:03:44.078Z,1.50
2017-11-27T12:08:59.563Z,1.53
2017-11-27T12:11:28.065Z,0.90
2017-11-27T12:13:56.098Z,1.20
2017-11-27T12:16:25.541Z,1.40
2017-11-27T12:18:52.329Z,1.57
2017-11-27T12:21:20.878Z,1.20
2017-11-27T12:23:48.317Z,1.40
2017-11-27T12:26:15.807Z,1.70
2017-11-27T12:28:45.127Z,1.60
2017-11-27T12:31:12.390Z,1.30
2017-11-27T12:33:39.007Z,1.20
2017-11-27T12:36:05.713Z,1.30
2017-11-27T12:38:33.046Z,1.10
2017-11-27T12:40:59.576Z,0.90
2017-11-27T12:43:26.125Z,1.30
2017-11-27T12:45:54.247Z,1.27
2017-11-27T12:48:21.539Z,1.73
2017-11-27T12:50:49.270Z,1.60
2017-11-27T12:53:15.889Z,1.30
2017-11-27T12:55:42.444Z,1.53
2017-11-27T12:58:09.032Z,1.17
2017-11-27T13:00:35.636Z,1.13
2017-11-27T13:03:02.744Z,1.07
2017-11-27T13:05:30.928Z,1.20
2017-11-27T13:07:58.166Z,1.27
2017-11-27T13:10:26.147Z,1.60
2017-11-27T13:12:53.077Z,1.13
2017-11-27T13:15:19.770Z,1.33
2017-11-27T13:17:47.339Z,2.00
2017-11-27T13:20:14.839Z,1.37
2017-11-27T13:22:42.287Z,1.47
2017-11-27T13:25:10.696Z,1.17
2017-11-27T13:27:37.192Z,1.67
2017-11-27T13:30:04.850Z,1.03
2017-11-27T13:32:32.805Z,1.27
2017-11-27T13:35:00.059Z,1.40
2017-11-27T13:37:27.550Z,1.33
2017-11-27T13:39:54.020Z,1.50
2017-11-27T13:42:22.192Z,1.40
2017-11-27T13:44:48.739Z,1.73
2017-11-27T13:47:16.205Z,1.47
2017-11-27T13:49:42.922Z,1.33
2017-11-27T13:52:11.322Z,0.73
2017-11-27T13:54:38.245Z,1.40
2017-11-27T13:57:04.747Z,1.30
2017-11-27T13:59:32.915Z,1.47
2017-11-27T14:02:02.742Z,1.70
2017-11-27T14:04:37.710Z,1.20
2017-11-27T14:07:10.993Z,1.50
2017-11-27T14:09:37.962Z,1.50
2017-11-27T14:12:07.597Z,1.47
2017-11-27T14:14:37.604Z,1.77
2017-11-27T14:17:06.311Z,1.20
2017-11-27T14:19:40.019Z,1.77
2017-11-27T14:22:11.058Z,1.77
2017-11-27T14:24:40.659Z,1.50
2017-11-27T14:27:07.978Z,1.80
2017-11-27T14:29:37.238Z,1.43
2017-11-27T14:32:05.363Z,2.17
2017-11-27T14:34:32.663Z,1.90
2017-11-27T14:37:01.376Z,1.67
2017-11-27T14:39:36.916Z,2.10
2017-11-27T14:42:06.704Z,1.60
2017-11-27T14:44:37.179Z,1.60
2017-11-27T14:47:08.445Z,2.20
2017-11-27T14:49:39.603Z,1.60
2017-11-27T14:52:07.959Z,1.60
2017-11-27T14:54:37.640Z,2.20
2017-11-27T14:57:07.521Z,2.53
2017-11-27T14:59:37.652Z,2.20
2017-11-27T15:02:07.291Z,1.77
2017-11-27T15:04:38.729Z,1.70
2017-11-27T15:07:11.070Z,2.40
2017-11-27T15:09:41.710Z,1.50
2017-11-27T15:12:10.641Z,1.67
2017-11-27T15:14:38.125Z,1.87
2017-11-27T15:17:05.690Z,1.87
2017-11-27T15:19:32.260Z,2.03
2017-11-27T15:22:00.695Z,2.30
2017-11-27T15:24:30.363Z,2.00
2017-11-27T15:26:56.838Z,2.10
2017-11-27T15:29:23.480Z,1.90
2017-11-27T15:31:50.172Z,2.40
2017-11-27T15:34:17.735Z,2.03
2017-11-27T15:36:46.771Z,2.10
2017-11-27T15:39:14.053Z,2.33
2017-11-27T15:41:40.960Z,2.73
2017-11-27T15:44:08.270Z,2.40
2017-11-27T15:46:37.404Z,2.20
2017-11-27T15:49:05.385Z,1.60
2017-11-27T15:51:32.819Z,3.20
2017-11-27T15:54:01.150Z,2.90
2017-11-27T15:56:28.884Z,2.57
2017-11-27T15:58:55.423Z,2.70
2017-11-27T16:01:22.322Z,2.50
2017-11-27T16:03:51.290Z,3.10
2017-11-27T16:06:18.719Z,3.40
2017-11-27T16:08:45.374Z,3.83
2017-11-27T16:11:11.833Z,4.83
2017-11-27T16:13:39.045Z,3.03
2017-11-27T16:16:05.520Z,2.67
2017-11-27T16:18:32.721Z,2.47
2017-11-27T16:20:59.244Z,2.87
2017-11-27T16:23:25.724Z,4.60
2017-11-27T16:25:52.334Z,3.37
2017-11-27T16:28:19.704Z,3.53
2017-11-27T16:30:46.842Z,3.17
2017-11-27T16:33:13.415Z,2.13
2017-11-27T16:35:39.859Z,3.10
2017-11-27T16:38:06.531Z,2.87
2017-11-27T16:40:33.012Z,2.87
2017-11-27T16:43:00.440Z,2.63
2017-11-27T16:45:26.888Z,3.97
2017-11-27T16:47:53.386Z,3.50
2017-11-27T16:50:19.921Z,3.33
2017-11-27T16:52:47.112Z,3.30
2017-11-27T16:55:13.637Z,2.63
2017-11-27T16:57:40.099Z,2.97
2017-11-27T17:00:06.572Z,2.40
2017-11-27T17:02:33.053Z,2.97
2017-11-27T17:04:59.477Z,3.30
2017-11-27T17:07:25.939Z,3.10
2017-11-27T17:09:52.527Z,3.00
2017-11-27T17:12:18.968Z,3.60
2017-11-27T17:14:45.470Z,3.53
2017-11-27T17:17:11.898Z,2.50
2017-11-27T17:19:38.369Z,3.80
2017-11-27T17:22:04.834Z,3.80
2017-11-27T17:24:31.385Z,3.40
2017-11-27T17:26:57.852Z,4.07
2017-11-27T17:29:24.348Z,3.87
2017-11-27T17:31:51.555Z,3.30
2017-11-27T17:34:18.895Z,4.40
2017-11-27T17:36:45.511Z,5.27
2017-11-27T17:39:12.020Z,5.60
2017-11-27T17:41:38.676Z,4.63
2017-11-27T17:44:05.953Z,6.47
2017-11-27T17:46:32.645Z,7.27
2017-11-27T17:48:59.177Z,5.70
2017-11-27T17:51:25.689Z,6.70
2017-11-27T17:53:52.222Z,7.40
2017-11-27T17:56:18.685Z,7.43
2017-11-27T17:58:45.326Z,5.13
2017-11-27T18:01:11.756Z,5.80
2017-11-27T18:03:38.241Z,6.70
2017-11-27T18:06:05.504Z,4.90
2017-11-27T18:08:32.720Z,4.90
2017-11-27T18:10:59.171Z,5.60
2017-11-27T18:13:25.668Z,5.97
2017-11-27T18:15:52.937Z,5.57
2017-11-27T18:18:19.401Z,4.30
2017-11-27T18:20:45.936Z,4.60
2017-11-27T18:23:13.165Z,3.67
2017-11-27T18:25:40.445Z,3.17
2017-11-27T18:28:07.701Z,3.80
2017-11-27T18:30:34.196Z,4.43
2017-11-27T18:33:00.643Z,3.10
2017-11-27T18:35:27.110Z,2.83
2017-11-27T18:37:54.556Z,3.17
2017-11-27T18:40:21.845Z,3.83
2017-11-27T18:42:49.313Z,3.47
2017-11-27T18:45:15.843Z,3.20
2017-11-27T18:47:42.300Z,3.60
2017-11-27T18:50:09.538Z,4.00
2017-11-27T18:52:36.380Z,3.23
2017-11-27T18:55:02.876Z,3.40
2017-11-27T18:57:29.328Z,3.40
2017-11-27T18:59:55.890Z,2.80
2017-11-27T19:02:22.359Z,3.80
2017-11-27T19:04:49.135Z,3.40
2017-11-27T19:07:16.372Z,3.53
2017-11-27T19:09:42.860Z,3.00
2017-11-27T19:12:09.332Z,2.43
2017-11-27T19:14:36.581Z,2.23
2017-11-27T19:17:03.080Z,3.10
2017-11-27T19:19:31.336Z,3.70
2017-11-27T19:21:57.769Z,5.40
2017-11-27T19:24:24.277Z,4.13
2017-11-27T19:26:52.333Z,4.90
2017-11-27T19:29:18.896Z,4.87
2017-11-27T19:31:45.405Z,5.40
2017-11-27T19:34:11.902Z,3.10
2017-11-27T19:36:39.152Z,4.87
2017-11-27T19:39:07.097Z,4.67
2017-11-27T19:41:33.584Z,5.10
2017-11-27T19:44:00.790Z,5.73
2017-11-27T19:46:28.024Z,5.30
2017-11-27T19:48:54.487Z,6.93
2017-11-27T19:51:21.038Z,4.73
2017-11-27T19:53:47.480Z,4.33
2017-11-27T19:56:13.937Z,3.20
2017-11-27T19:58:40.417Z,4.60
2017-11-27T20:01:08.422Z,4.87
2017-11-27T20:03:34.892Z,3.90
2017-11-27T20:06:01.405Z,3.60
2017-11-27T20:08:27.921Z,4.60
2017-11-27T20:10:54.393Z,3.60
2017-11-27T20:13:21.698Z,3.27
2017-11-27T20:15:48.434Z,4.03
2017-11-27T20:18:20.780Z,4.10
2017-11-27T20:20:47.247Z,3.53
2017-11-27T20:23:14.471Z,3.20
2017-11-27T20:25:40.941Z,3.03
2017-11-27T20:28:08.141Z,3.80
2017-11-27T20:30:34.627Z,3.53
2017-11-27T20:33:01.821Z,3.07
2017-11-27T20:35:28.356Z,2.20
2017-11-27T20:37:55.548Z,3.97
2017-11-27T20:40:22.032Z,3.00
2017-11-27T20:42:48.555Z,3.17
2017-11-27T20:45:15.122Z,3.60
2017-11-27T20:47:41.610Z,3.13
2017-11-27T20:50:08.066Z,3.23
2017-11-27T20:52:34.524Z,3.87
2017-11-27T20:55:00.951Z,4.03
2017-11-27T20:57:28.345Z,4.40
2017-11-27T20:59:54.819Z,4.07
2017-11-27T21:02:21.264Z,3.57
2017-11-27T21:04:47.688Z,11.60
2017-11-27T21:07:14.185Z,8.43
2017-11-27T21:09:40.664Z,3.30
2017-11-27T21:12:07.060Z,3.07
2017-11-27T21:14:33.619Z,3.00
2017-11-27T21:17:00.096Z,3.23
2017-11-27T21:19:26.575Z,1.50
2017-11-27T21:21:53.750Z,1.03
2017-11-27T21:24:20.305Z,1.10
2017-11-27T21:26:46.744Z,1.20
2017-11-27T21:29:13.210Z,1.57
2017-11-27T21:31:39.638Z,1.43
2017-11-27T21:34:07.463Z,1.97
2017-11-27T21:36:33.909Z,1.80
2017-11-27T21:39:00.359Z,2.10
2017-11-27T21:41:28.369Z,4.03
2017-11-27T21:43:55.542Z,2.07
2017-11-27T21:46:22.002Z,2.00
2017-11-27T21:48:48.901Z,2.70
2017-11-27T21:51:16.160Z,1.80
2017-11-27T21:53:44.152Z,2.53
2017-11-27T21:56:10.819Z,2.37
2017-11-27T21:58:37.353Z,2.30
2017-11-27T22:01:05.613Z,2.60
2017-11-27T22:03:32.107Z,2.50
2017-11-27T22:05:58.560Z,2.50
2017-11-27T22:08:25.017Z,3.37
2017-11-27T22:10:51.489Z,3.30
2017-11-27T22:13:17.946Z,3.00
2017-11-27T22:15:44.468Z,3.00
2017-11-27T22:18:11.018Z,2.70
2017-11-27T22:20:37.480Z,3.10
2017-11-27T22:23:04.589Z,2.80
2017-11-27T22:25:31.043Z,2.40
2017-11-27T22:27:57.495Z,2.00
2017-11-27T22:30:24.710Z,2.70
2017-11-27T22:32:51.182Z,2.67
2017-11-27T22:35:17.676Z,1.37
2017-11-27T22:37:44.081Z,1.50
2017-11-27T22:40:10.572Z,4.27
2017-11-27T22:42:37.106Z,4.73
2017-11-27T22:45:04.665Z,2.67
2017-11-27T22:47:31.144Z,3.23
2017-11-27T22:49:57.629Z,2.50
2017-11-27T22:52:24.076Z,3.20
2017-11-27T22:54:50.548Z,2.97
2017-11-27T22:57:17.019Z,1.43
2017-11-27T22:59:43.467Z,2.63
2017-11-27T23:02:09.953Z,1.30
2017-11-27T23:04:36.439Z,1.40
2017-11-27T23:07:03.373Z,2.40
2017-11-27T23:09:29.868Z,1.50
2017-11-27T23:11:56.370Z,1.70
2017-11-27T23:14:22.807Z,1.47
2017-11-27T23:16:49.277Z,1.50
2017-11-27T23:19:15.812Z,1.67
2017-11-27T23:21:43.044Z,2.03
2017-11-27T23:24:09.517Z,2.00
2017-11-27T23:26:36.091Z,1.90
2017-11-27T23:29:03.716Z,1.63
2017-11-27T23:31:30.260Z,1.67
2017-11-27T23:33:56.735Z,1.30
2017-11-27T23:36:23.205Z,1.23
2017-11-27T23:38:49.708Z,1.20
2017-11-27T23:41:16.151Z,1.60
2017-11-27T23:43:43.396Z,3.20
2017-11-27T23:46:09.868Z,1.93
2017-11-27T23:48:36.370Z,1.50
2017-11-27T23:51:02.811Z,1.20
2017-11-27T23:53:29.276Z,1.00
2017-11-27T23:55:56.073Z,1.07
2017-11-27T23:58:23.272Z,1.47
